Time,TemperatureF,DewpointF,PressureIn,WindDirection,WindDirectionDegrees,WindSpeedMPH,WindSpeedGustMPH,Humidity,HourlyPrecipIn,Conditions,Clouds,dailyrainin,SolarRadiationWatts/m^2,SoftwareType,DateUTC
2013-04-28 00:00:00,55.3,28.8,30.26,North,360,0.0,0.0,36,0.00,,,0.00,0,Wunderground v.1.15,2013-04-28 04:00:00,
2013-04-28 00:02:00,55.1,29.3,30.26,North,360,0.0,0.0,37,0.00,,,0.00,0,Wunderground v.1.15,2013-04-28 04:02:00,
2013-04-28 00:04:00,55.1,29.3,30.26,North,360,0.0,0.0,37,0.00,,,0.00,0,Wunderground v.1.15,2013-04-28 04:04:00,
2013-04-28 00:06:00,55.0,29.2,30.26,NNE,26,0.0,0.0,37,0.00,,,0.00,0,Wunderground v.1.15,2013-04-28 04:06:00,
2013-04-28 00:10:00,54.7,28.9,30.26,North,360,0.0,1.0,37,0.00,,,0.00,0,Wunderground v.1.15,2013-04-28 04:10:00,
2013-04-28 00:16:00,54.4,28.6,30.27,NNE,26,0.0,0.0,37,0.00,,,0.00,0,Wunderground v.1.15,2013-04-28 04:16:00,
2013-04-28 00:21:00,54.2,28.5,30.27,North,360,0.0,0.0,37,0.00,,,0.00,0,Wunderground v.1.15,2013-04-28 04:21:00,
2013-04-28 00:28:00,53.9,28.2,30.27,North,360,0.0,0.0,37,0.00,,,0.00,0,Wunderground v.1.15,2013-04-28 04:28:00,
2013-04-28 00:29:00,53.8,28.1,30.27,NNE,25,0.0,0.0,37,0.00,,,0.00,0,Wunderground v.1.15,2013-04-28 04:29:00,
2013-04-28 00:36:00,53.5,29.1,30.26,North,360,0.0,0.0,39,0.00,,,0.00,0,Wunderground v.1.15,2013-04-28 04:36:00,
2013-04-28 00:43:00,53.2,30.1,30.26,North,360,0.0,0.0,41,0.00,,,0.00,0,Wunderground v.1.15,2013-04-28 04:43:00,
2013-04-28 00:49:00,52.9,29.8,30.26,NNE,25,0.0,0.0,41,0.00,,,0.00,0,Wunderground v.1.15,2013-04-28 04:49:00,
2013-04-28 00:56:00,52.6,29.5,30.26,NNE,25,0.0,0.0,41,0.00,,,0.00,0,Wunderground v.1.15,2013-04-28 04:56:00,
2013-04-28 01:03:00,52.3,29.3,30.26,NNE,25,0.0,0.0,41,0.00,,,0.00,0,Wunderground v.1.15,2013-04-28 05:03:00,
2013-04-28 01:09:00,52.0,29.6,30.26,NNE,25,0.0,0.0,42,0.00,,,0.00,0,Wunderground v.1.15,2013-04-28 05:09:00,
2013-04-28 01:16:00,51.9,30.1,30.27,NNE,25,0.0,0.0,43,0.00,,,0.00,0,Wunderground v.1.15,2013-04-28 05:16:00,
2013-04-28 01:21:00,51.7,30.5,30.27,NNE,25,0.0,0.0,44,0.00,,,0.00,0,Wunderground v.1.15,2013-04-28 05:21:00,
2013-04-28 01:27:00,51.6,30.4,30.27,NNE,24,0.0,0.0,44,0.00,,,0.00,0,Wunderground v.1.15,2013-04-28 05:27:00,
2013-04-28 01:33:00,51.4,30.7,30.26,North,360,0.0,0.0,45,0.00,,,0.00,0,Wunderground v.1.15,2013-04-28 05:33:00,
2013-04-28 01:39:00,51.3,31.2,30.26,NNE,25,0.0,0.0,46,0.00,,,0.00,0,Wunderground v.1.15,2013-04-28 05:39:00,
2013-04-28 01:46:00,51.0,30.9,30.25,NNE,25,0.0,0.0,46,0.00,,,0.00,0,Wunderground v.1.15,2013-04-28 05:46:00,
2013-04-28 01:51:00,50.8,31.3,30.25,NNE,25,0.0,0.0,47,0.00,,,0.00,0,Wunderground v.1.15,2013-04-28 05:51:00,
2013-04-28 01:57:00,50.7,32.2,30.25,NNE,25,0.0,0.0,49,0.00,,,0.00,0,Wunderground v.1.15,2013-04-28 05:57:00,
2013-04-28 02:03:00,50.4,32.9,30.25,NNE,25,0.0,0.0,51,0.00,,,0.00,0,Wunderground v.1.15,2013-04-28 06:03:00,
2013-04-28 02:08:00,50.2,32.8,30.25,NNE,25,0.0,0.0,51,0.00,,,0.00,0,Wunderground v.1.15,2013-04-28 06:08:00,
2013-04-28 02:14:00,49.9,33.9,30.25,NNE,25,0.0,0.0,54,0.00,,,0.00,0,Wunderground v.1.15,2013-04-28 06:14:00,
2013-04-28 02:20:00,49.6,34.1,30.25,NNE,24,0.0,0.0,55,0.00,,,0.00,0,Wunderground v.1.15,2013-04-28 06:20:00,
2013-04-28 02:27:00,49.4,34.3,30.25,NNE,24,0.0,0.0,56,0.00,,,0.00,0,Wunderground v.1.15,2013-04-28 06:27:00,
2013-04-28 02:32:00,49.1,34.5,30.24,NNE,24,0.0,0.0,57,0.00,,,0.00,0,Wunderground v.1.15,2013-04-28 06:32:00,
2013-04-28 02:38:00,48.8,34.2,30.24,NNE,24,0.0,0.0,57,0.00,,,0.00,0,Wunderground v.1.15,2013-04-28 06:38:00,
2013-04-28 02:44:00,48.6,34.5,30.24,NNE,24,0.0,0.0,58,0.00,,,0.00,0,Wunderground v.1.15,2013-04-28 06:44:00,
2013-04-28 02:50:00,48.3,35.0,30.24,NNE,24,0.0,0.0,60,0.00,,,0.00,0,Wunderground v.1.15,2013-04-28 06:50:00,
2013-04-28 02:56:00,47.9,35.5,30.24,NNE,24,0.0,0.0,62,0.00,,,0.00,0,Wunderground v.1.15,2013-04-28 06:56:00,
2013-04-28 03:02:00,47.7,35.3,30.24,NNE,24,0.0,0.0,62,0.00,,,0.00,0,Wunderground v.1.15,2013-04-28 07:02:00,
2013-04-28 03:08:00,47.4,35.4,30.24,NNE,24,0.0,0.0,63,0.00,,,0.00,0,Wunderground v.1.15,2013-04-28 07:08:00,
2013-04-28 03:14:00,47.3,35.3,30.24,North,360,0.0,0.0,63,0.00,,,0.00,0,Wunderground v.1.15,2013-04-28 07:14:00,
2013-04-28 03:20:00,47.0,35.4,30.23,North,360,0.0,0.0,64,0.00,,,0.00,0,Wunderground v.1.15,2013-04-28 07:20:00,
2013-04-28 03:27:00,46.5,35.0,30.23,NNE,24,0.0,0.0,64,0.00,,,0.00,0,Wunderground v.1.15,2013-04-28 07:27:00,
2013-04-28 03:34:00,46.4,34.9,30.23,NNE,24,0.0,0.0,64,0.00,,,0.00,0,Wunderground v.1.15,2013-04-28 07:34:00,
2013-04-28 03:40:00,46.2,34.7,30.23,NNE,24,0.0,0.0,64,0.00,,,0.00,0,Wunderground v.1.15,2013-04-28 07:40:00,
2013-04-28 03:46:00,46.0,34.9,30.24,North,360,0.0,0.0,65,0.00,,,0.00,0,Wunderground v.1.15,2013-04-28 07:46:00,
2013-04-28 03:51:00,45.8,34.7,30.24,NNE,24,0.0,0.0,65,0.00,,,0.00,0,Wunderground v.1.15,2013-04-28 07:51:00,
2013-04-28 03:57:00,45.7,35.0,30.24,NNE,24,0.0,0.0,66,0.00,,,0.00,0,Wunderground v.1.15,2013-04-28 07:57:00,
2013-04-28 04:03:00,45.5,35.2,30.24,NNE,24,0.0,0.0,67,0.00,,,0.00,0,Wunderground v.1.15,2013-04-28 08:03:00,
2013-04-28 04:09:00,45.4,35.8,30.24,North,360,0.0,0.0,69,0.00,,,0.00,0,Wunderground v.1.15,2013-04-28 08:09:00,
2013-04-28 04:16:00,45.1,35.5,30.24,North,360,0.0,0.0,69,0.00,,,0.00,0,Wunderground v.1.15,2013-04-28 08:16:00,
2013-04-28 04:21:00,44.9,35.7,30.24,North,360,0.0,0.0,70,0.00,,,0.00,0,Wunderground v.1.15,2013-04-28 08:21:00,
2013-04-28 04:27:00,44.8,35.6,30.24,North,360,0.0,0.0,70,0.00,,,0.00,0,Wunderground v.1.15,2013-04-28 08:27:00,
2013-04-28 04:33:00,44.6,35.4,30.24,North,360,0.0,0.0,70,0.00,,,0.00,0,Wunderground v.1.15,2013-04-28 08:33:00,
2013-04-28 04:39:00,44.5,35.3,30.24,NNE,24,0.0,0.0,70,0.00,,,0.00,0,Wunderground v.1.15,2013-04-28 08:39:00,
2013-04-28 04:46:00,44.2,35.4,30.24,NNE,24,0.0,0.0,71,0.00,,,0.00,0,Wunderground v.1.15,2013-04-28 08:46:00,
2013-04-28 04:51:00,44.2,35.7,30.24,NNE,24,0.0,0.0,72,0.00,,,0.00,0,Wunderground v.1.15,2013-04-28 08:51:00,
2013-04-28 04:57:00,44.1,35.6,30.24,North,360,0.0,0.0,72,0.00,,,0.00,0,Wunderground v.1.15,2013-04-28 08:57:00,
2013-04-28 05:03:00,43.9,35.8,30.24,NNE,24,0.0,0.0,73,0.00,,,0.00,0,Wunderground v.1.15,2013-04-28 09:03:00,
2013-04-28 05:08:00,43.8,35.7,30.24,North,360,0.0,0.0,73,0.00,,,0.00,0,Wunderground v.1.15,2013-04-28 09:08:00,
2013-04-28 05:14:00,43.6,35.5,30.24,NNE,24,0.0,0.0,73,0.00,,,0.00,0,Wunderground v.1.15,2013-04-28 09:14:00,
2013-04-28 05:20:00,43.5,35.8,30.23,NNE,24,0.0,0.0,74,0.00,,,0.00,0,Wunderground v.1.15,2013-04-28 09:20:00,
2013-04-28 05:28:00,43.2,35.5,30.23,North,360,0.0,0.0,74,0.00,,,0.00,0,Wunderground v.1.15,2013-04-28 09:28:00,
2013-04-28 05:34:00,43.1,36.0,30.23,NNE,24,0.0,0.0,76,0.00,,,0.00,0,Wunderground v.1.15,2013-04-28 09:34:00,
2013-04-28 05:40:00,42.9,36.2,30.23,North,360,0.0,0.0,77,0.00,,,0.00,0,Wunderground v.1.15,2013-04-28 09:40:00,
2013-04-28 05:48:00,42.8,36.4,30.24,NNE,24,0.0,0.0,78,0.00,,,0.00,0,Wunderground v.1.15,2013-04-28 09:48:00,
2013-04-28 05:54:00,42.6,36.5,30.24,NNE,24,0.0,0.0,79,0.00,,,0.00,0,Wunderground v.1.15,2013-04-28 09:54:00,
2013-04-28 06:00:00,42.6,36.5,30.24,NNE,24,0.0,0.0,79,0.00,,,0.00,5,Wunderground v.1.15,2013-04-28 10:00:00,
2013-04-28 06:06:00,42.5,36.4,30.24,North,360,0.0,0.0,79,0.00,,,0.00,9,Wunderground v.1.15,2013-04-28 10:06:00,
2013-04-28 06:12:00,42.5,36.8,30.24,NNE,23,0.0,0.0,80,0.00,,,0.00,12,Wunderground v.1.15,2013-04-28 10:12:00,
2013-04-28 06:18:00,42.3,36.6,30.25,NNE,24,0.0,0.0,80,0.00,,,0.00,21,Wunderground v.1.15,2013-04-28 10:18:00,
2013-04-28 06:24:00,42.3,36.6,30.25,NNE,24,0.0,0.0,80,0.00,,,0.00,30,Wunderground v.1.15,2013-04-28 10:24:00,
2013-04-28 06:30:00,42.3,36.9,30.25,NNE,24,0.0,0.0,81,0.00,,,0.00,40,Wunderground v.1.15,2013-04-28 10:30:00,
2013-04-28 06:36:00,42.5,37.1,30.24,North,360,0.0,0.0,81,0.00,,,0.00,51,Wunderground v.1.15,2013-04-28 10:36:00,
2013-04-28 06:43:00,42.8,37.7,30.24,NNE,18,0.0,0.0,82,0.00,,,0.00,63,Wunderground v.1.15,2013-04-28 10:43:00,
2013-04-28 06:49:00,43.1,38.0,30.25,North,360,0.0,0.0,82,0.00,,,0.00,77,Wunderground v.1.15,2013-04-28 10:49:00,
2013-04-28 06:56:00,43.3,38.2,30.25,NNE,22,0.0,0.0,82,0.00,,,0.00,93,Wunderground v.1.15,2013-04-28 10:56:00,
2013-04-28 07:01:00,43.6,38.2,30.25,NNE,22,0.0,1.0,81,0.00,,,0.00,105,Wunderground v.1.15,2013-04-28 11:01:00,
2013-04-28 07:07:00,44.1,38.3,30.25,NNE,19,0.0,0.0,80,0.00,,,0.00,120,Wunderground v.1.15,2013-04-28 11:07:00,
2013-04-28 07:13:00,44.3,38.2,30.25,NNE,24,0.0,0.0,79,0.00,,,0.00,135,Wunderground v.1.15,2013-04-28 11:13:00,
2013-04-28 07:19:00,44.8,38.4,30.25,NNE,19,0.0,0.0,78,0.00,,,0.00,148,Wunderground v.1.15,2013-04-28 11:19:00,
2013-04-28 07:26:00,45.5,38.7,30.25,NNE,19,0.0,0.0,77,0.00,,,0.00,167,Wunderground v.1.15,2013-04-28 11:26:00,
2013-04-28 07:33:00,46.4,38.9,30.26,NNE,19,0.0,0.0,75,0.00,,,0.00,188,Wunderground v.1.15,2013-04-28 11:33:00,
2013-04-28 07:39:00,47.0,38.8,30.26,NNE,19,0.0,1.0,73,0.00,,,0.00,93,Wunderground v.1.15,2013-04-28 11:39:00,
2013-04-28 07:46:00,47.7,38.4,30.26,NNE,19,0.0,1.0,70,0.00,,,0.00,63,Wunderground v.1.15,2013-04-28 11:46:00,
2013-04-28 07:51:00,48.3,38.2,30.26,NNE,19,0.0,0.0,68,0.00,,,0.00,232,Wunderground v.1.15,2013-04-28 11:51:00,
2013-04-28 07:57:00,48.9,37.6,30.26,North,360,0.0,1.0,65,0.00,,,0.00,258,Wunderground v.1.15,2013-04-28 11:57:00,
2013-04-28 08:03:00,49.6,36.7,30.27,NNE,19,0.0,0.0,61,0.00,,,0.00,267,Wunderground v.1.15,2013-04-28 12:03:00,
2013-04-28 08:08:00,50.4,36.6,30.27,NNE,20,0.0,0.0,59,0.00,,,0.00,287,Wunderground v.1.15,2013-04-28 12:08:00,
2013-04-28 08:14:00,51.4,36.7,30.27,NNE,20,0.0,0.0,57,0.00,,,0.00,306,Wunderground v.1.15,2013-04-28 12:14:00,
2013-04-28 08:20:00,52.5,37.2,30.27,NNE,20,0.0,1.0,56,0.00,,,0.00,325,Wunderground v.1.15,2013-04-28 12:20:00,
2013-04-28 08:27:00,53.3,36.6,30.27,NNE,20,0.0,1.0,53,0.00,,,0.00,338,Wunderground v.1.15,2013-04-28 12:27:00,
2013-04-28 08:34:00,54.1,36.4,30.27,NNE,21,0.0,1.0,51,0.00,,,0.00,364,Wunderground v.1.15,2013-04-28 12:34:00,
2013-04-28 08:40:00,54.7,36.4,30.27,NNE,14,0.0,1.0,50,0.00,,,0.00,381,Wunderground v.1.15,2013-04-28 12:40:00,
2013-04-28 08:48:00,55.4,36.0,30.27,North,360,1.0,1.0,48,0.00,,,0.00,353,Wunderground v.1.15,2013-04-28 12:48:00,
2013-04-28 08:54:00,55.9,35.4,30.27,NNE,13,1.0,1.0,46,0.00,,,0.00,420,Wunderground v.1.15,2013-04-28 12:54:00,
2013-04-28 09:00:00,56.3,35.2,30.27,NNE,13,1.0,2.0,45,0.00,,,0.00,432,Wunderground v.1.15,2013-04-28 13:00:00,
2013-04-28 09:06:00,56.9,36.3,30.27,NNE,13,1.0,1.0,46,0.00,,,0.00,452,Wunderground v.1.15,2013-04-28 13:06:00,
2013-04-28 09:11:00,57.6,35.2,30.27,NNE,13,1.0,2.0,43,0.00,,,0.00,468,Wunderground v.1.15,2013-04-28 13:11:00,
2013-04-28 09:18:00,58.7,34.4,30.27,NNE,14,0.0,3.0,40,0.00,,,0.00,482,Wunderground v.1.15,2013-04-28 13:18:00,
2013-04-28 09:24:00,58.9,34.6,30.27,NNE,22,1.0,1.0,40,0.00,,,0.00,499,Wunderground v.1.15,2013-04-28 13:24:00,
2013-04-28 09:29:00,59.3,34.3,30.27,NNE,23,1.0,2.0,39,0.00,,,0.00,515,Wunderground v.1.15,2013-04-28 13:29:00,
2013-04-28 09:36:00,59.8,34.8,30.27,NNE,17,1.0,1.0,39,0.00,,,0.00,533,Wunderground v.1.15,2013-04-28 13:36:00,
2013-04-28 09:43:00,60.2,33.8,30.27,NNE,30,1.0,1.0,37,0.00,,,0.00,552,Wunderground v.1.15,2013-04-28 13:43:00,
2013-04-28 09:49:00,60.4,33.3,30.26,NNE,14,2.0,2.0,36,0.00,,,0.00,564,Wunderground v.1.15,2013-04-28 13:49:00,
2013-04-28 09:56:00,60.7,34.3,30.26,NNE,23,2.0,2.0,37,0.00,,,0.00,578,Wunderground v.1.15,2013-04-28 13:56:00,
2013-04-28 10:03:00,61.3,33.4,30.26,NNE,18,2.0,2.0,35,0.00,,,0.00,598,Wunderground v.1.15,2013-04-28 14:03:00,
2013-04-28 10:09:00,62.0,34.0,30.26,NNE,22,1.0,3.0,35,0.00,,,0.00,610,Wunderground v.1.15,2013-04-28 14:09:00,
2013-04-28 10:16:00,62.6,34.5,30.25,North,360,1.0,2.0,35,0.00,,,0.00,603,Wunderground v.1.15,2013-04-28 14:16:00,
2013-04-28 10:23:00,63.4,34.5,30.25,NNE,22,1.0,3.0,34,0.00,,,0.00,643,Wunderground v.1.15,2013-04-28 14:23:00,
2013-04-28 10:29:00,63.9,33.4,30.25,NNE,17,2.0,4.0,32,0.00,,,0.00,652,Wunderground v.1.15,2013-04-28 14:29:00,
2013-04-28 10:36:00,64.0,32.7,30.25,NNE,16,1.0,2.0,31,0.00,,,0.00,666,Wunderground v.1.15,2013-04-28 14:36:00,
2013-04-28 10:43:00,65.0,34.4,30.25,NNE,26,1.0,2.0,32,0.00,,,0.00,679,Wunderground v.1.15,2013-04-28 14:43:00,
2013-04-28 10:49:00,65.3,32.2,30.25,North,360,2.0,2.0,29,0.00,,,0.00,680,Wunderground v.1.15,2013-04-28 14:49:00,
2013-04-28 10:57:00,66.3,33.1,30.25,NNE,21,1.0,2.0,29,0.00,,,0.00,701,Wunderground v.1.15,2013-04-28 14:57:00,
2013-04-28 11:03:00,66.9,33.6,30.25,North,360,1.0,2.0,29,0.00,,,0.00,715,Wunderground v.1.15,2013-04-28 15:03:00,
2013-04-28 11:08:00,66.9,32.7,30.25,North,360,2.0,2.0,28,0.00,,,0.00,714,Wunderground v.1.15,2013-04-28 15:08:00,
2013-04-28 11:14:00,67.4,33.1,30.25,NNE,28,1.0,1.0,28,0.00,,,0.00,735,Wunderground v.1.15,2013-04-28 15:14:00,
2013-04-28 11:20:00,67.4,34.0,30.25,NNE,26,2.0,3.0,29,0.00,,,0.00,740,Wunderground v.1.15,2013-04-28 15:20:00,
2013-04-28 11:28:00,67.4,34.0,30.25,North,360,2.0,2.0,29,0.00,,,0.00,735,Wunderground v.1.15,2013-04-28 15:28:00,
2013-04-28 11:38:00,68.1,33.7,30.24,NNE,18,2.0,2.0,28,0.00,,,0.00,729,Wunderground v.1.15,2013-04-28 15:38:00,
2013-04-28 11:48:00,68.3,33.9,30.24,NNE,22,2.0,6.0,28,0.00,,,0.00,742,Wunderground v.1.15,2013-04-28 15:48:00,
2013-04-28 12:02:00,68.4,34.9,30.24,NNE,16,2.0,4.0,29,0.00,,,0.00,756,Wunderground v.1.15,2013-04-28 16:02:00,
2013-04-28 12:10:00,69.3,34.8,30.24,NNE,26,2.0,4.0,28,0.00,,,0.00,780,Wunderground v.1.15,2013-04-28 16:10:00,
2013-04-28 12:20:00,69.6,35.0,30.24,NNE,19,3.0,3.0,28,0.00,,,0.00,803,Wunderground v.1.15,2013-04-28 16:20:00,
2013-04-28 12:30:00,69.8,34.3,30.24,NNE,28,3.0,6.0,27,0.00,,,0.00,738,Wunderground v.1.15,2013-04-28 16:30:00,
2013-04-28 12:37:00,70.1,35.5,30.23,NNE,21,3.0,3.0,28,0.00,,,0.00,786,Wunderground v.1.15,2013-04-28 16:37:00,
2013-04-28 12:48:00,69.9,35.3,30.22,NNE,21,3.0,4.0,28,0.00,,,0.00,673,Wunderground v.1.15,2013-04-28 16:48:00,
2013-04-28 12:58:00,69.6,35.0,30.22,NNE,15,4.0,5.0,28,0.00,,,0.00,826,Wunderground v.1.15,2013-04-28 16:58:00,
2013-04-28 13:14:00,70.6,35.0,30.22,NNE,20,4.0,7.0,27,0.00,,,0.00,851,Wunderground v.1.15,2013-04-28 17:14:00,
2013-04-28 13:20:00,70.8,33.2,30.21,NNE,22,4.0,7.0,25,0.00,,,0.00,742,Wunderground v.1.15,2013-04-28 17:20:00,
2013-04-28 13:28:00,70.8,35.1,30.21,North,360,4.0,5.0,27,0.00,,,0.00,522,Wunderground v.1.15,2013-04-28 17:28:00,
2013-04-28 13:42:00,69.8,35.2,30.21,NNE,19,5.0,6.0,28,0.00,,,0.00,520,Wunderground v.1.15,2013-04-28 17:42:00,
2013-04-28 13:52:00,69.9,36.2,30.21,NNE,24,4.0,4.0,29,0.00,,,0.00,601,Wunderground v.1.15,2013-04-28 17:52:00,
2013-04-28 14:01:00,69.4,35.7,30.21,NNE,14,4.0,7.0,29,0.00,,,0.00,612,Wunderground v.1.15,2013-04-28 18:01:00,
2013-04-28 14:10:00,69.1,34.6,30.21,NNE,22,5.0,12.0,28,0.00,,,0.00,578,Wunderground v.1.15,2013-04-28 18:10:00,
2013-04-28 14:19:00,69.6,35.0,30.21,NNE,25,5.0,8.0,28,0.00,,,0.00,719,Wunderground v.1.15,2013-04-28 18:19:00,
2013-04-28 14:27:00,69.4,35.7,30.21,NNE,27,5.0,5.0,29,0.00,,,0.00,592,Wunderground v.1.15,2013-04-28 18:27:00,
2013-04-28 14:40:00,69.1,34.6,30.21,NNE,24,5.0,5.0,28,0.00,,,0.00,413,Wunderground v.1.15,2013-04-28 18:40:00,
2013-04-28 14:49:00,68.6,33.3,30.20,North,360,4.0,5.0,27,0.00,,,0.00,397,Wunderground v.1.15,2013-04-28 18:49:00,
2013-04-28 14:57:00,68.1,31.9,30.20,NNE,24,4.0,4.0,26,0.00,,,0.00,457,Wunderground v.1.15,2013-04-28 18:57:00,
2013-04-28 15:04:00,67.9,30.8,30.20,NNE,25,4.0,9.0,25,0.00,,,0.00,522,Wunderground v.1.15,2013-04-28 19:04:00,
2013-04-28 15:10:00,67.8,30.7,30.20,NNE,26,6.0,6.0,25,0.00,,,0.00,459,Wunderground v.1.15,2013-04-28 19:10:00,
2013-04-28 15:18:00,67.1,30.1,30.20,NNE,21,6.0,6.0,25,0.00,,,0.00,410,Wunderground v.1.15,2013-04-28 19:18:00,
2013-04-28 15:24:00,66.9,27.9,30.20,North,360,5.0,6.0,23,0.00,,,0.00,536,Wunderground v.1.15,2013-04-28 19:24:00,
2013-04-28 15:30:00,67.1,28.0,30.20,NNE,25,5.0,6.0,23,0.00,,,0.00,563,Wunderground v.1.15,2013-04-28 19:30:00,
2013-04-28 15:36:00,67.6,27.4,30.19,NNE,22,5.0,6.0,22,0.00,,,0.00,585,Wunderground v.1.15,2013-04-28 19:36:00,
2013-04-28 15:44:00,68.6,24.7,30.19,NNE,24,4.0,4.0,19,0.00,,,0.00,564,Wunderground v.1.15,2013-04-28 19:44:00,
2013-04-28 15:50:00,68.4,23.2,30.19,NNE,19,5.0,6.0,18,0.00,,,0.00,436,Wunderground v.1.15,2013-04-28 19:50:00,
2013-04-28 15:57:00,67.4,23.7,30.19,NNE,21,6.0,6.0,19,0.00,,,0.00,404,Wunderground v.1.15,2013-04-28 19:57:00,
2013-04-28 16:04:00,67.6,25.1,30.19,North,360,5.0,6.0,20,0.00,,,0.00,373,Wunderground v.1.15,2013-04-28 20:04:00,
2013-04-28 16:09:00,67.1,25.8,30.19,North,360,5.0,7.0,21,0.00,,,0.00,320,Wunderground v.1.15,2013-04-28 20:09:00,
2013-04-28 16:16:00,66.1,25.0,30.19,NNE,22,6.0,8.0,21,0.00,,,0.00,329,Wunderground v.1.15,2013-04-28 20:16:00,
2013-04-28 16:21:00,66.1,25.0,30.19,NNE,19,5.0,8.0,21,0.00,,,0.00,306,Wunderground v.1.15,2013-04-28 20:21:00,
2013-04-28 16:27:00,66.0,24.9,30.19,North,360,5.0,5.0,21,0.00,,,0.00,276,Wunderground v.1.15,2013-04-28 20:27:00,
2013-04-28 16:33:00,65.8,25.9,30.19,North,360,5.0,5.0,22,0.00,,,0.00,292,Wunderground v.1.15,2013-04-28 20:33:00,
2013-04-28 16:39:00,66.0,24.9,30.19,NNE,20,5.0,8.0,21,0.00,,,0.00,325,Wunderground v.1.15,2013-04-28 20:39:00,
2013-04-28 16:47:00,65.6,25.7,30.18,NNE,22,5.0,5.0,22,0.00,,,0.00,250,Wunderground v.1.15,2013-04-28 20:47:00,
2013-04-28 16:53:00,65.5,25.6,30.18,North,360,4.0,5.0,22,0.00,,,0.00,202,Wunderground v.1.15,2013-04-28 20:53:00,
2013-04-28 16:59:00,65.3,25.4,30.18,NNE,17,4.0,7.0,22,0.00,,,0.00,202,Wunderground v.1.15,2013-04-28 20:59:00,
2013-04-28 17:07:00,64.8,26.1,30.18,NNE,17,5.0,6.0,23,0.00,,,0.00,213,Wunderground v.1.15,2013-04-28 21:07:00,
2013-04-28 17:13:00,64.7,24.9,30.18,NNE,19,5.0,8.0,22,0.00,,,0.00,213,Wunderground v.1.15,2013-04-28 21:13:00,
2013-04-28 17:19:00,64.5,25.8,30.18,NNE,17,5.0,8.0,23,0.00,,,0.00,206,Wunderground v.1.15,2013-04-28 21:19:00,
2013-04-28 17:27:00,64.2,25.6,30.18,NNE,21,5.0,8.0,23,0.00,,,0.00,190,Wunderground v.1.15,2013-04-28 21:27:00,
2013-04-28 17:33:00,63.9,25.3,30.18,NNE,22,4.0,4.0,23,0.00,,,0.00,172,Wunderground v.1.15,2013-04-28 21:33:00,
2013-04-28 17:39:00,63.9,24.3,30.18,NNE,26,4.0,5.0,22,0.00,,,0.00,163,Wunderground v.1.15,2013-04-28 21:39:00,
2013-04-28 17:45:00,63.4,24.9,30.17,NNE,22,5.0,5.0,23,0.00,,,0.00,155,Wunderground v.1.15,2013-04-28 21:45:00,
2013-04-28 17:53:00,63.2,24.7,30.17,NNE,29,4.0,7.0,23,0.00,,,0.00,139,Wunderground v.1.15,2013-04-28 21:53:00,
2013-04-28 17:59:00,63.1,24.7,30.17,NNE,24,4.0,7.0,23,0.00,,,0.00,128,Wunderground v.1.15,2013-04-28 21:59:00,
2013-04-28 18:04:00,62.9,24.5,30.17,NNE,22,4.0,4.0,23,0.00,,,0.00,118,Wunderground v.1.15,2013-04-28 22:04:00,
2013-04-28 18:10:00,62.6,24.2,30.17,NNE,17,4.0,8.0,23,0.00,,,0.00,102,Wunderground v.1.15,2013-04-28 22:10:00,
2013-04-28 18:17:00,62.4,24.1,30.17,NNE,18,5.0,5.0,23,0.00,,,0.00,90,Wunderground v.1.15,2013-04-28 22:17:00,
2013-04-28 18:24:00,62.3,25.0,30.17,NNE,17,4.0,5.0,24,0.00,,,0.00,77,Wunderground v.1.15,2013-04-28 22:24:00,
2013-04-28 18:30:00,62.1,24.8,30.17,NNE,19,3.0,5.0,24,0.00,,,0.00,74,Wunderground v.1.15,2013-04-28 22:30:00,
2013-04-28 18:36:00,62.0,23.7,30.17,NNE,20,3.0,7.0,23,0.00,,,0.00,67,Wunderground v.1.15,2013-04-28 22:36:00,
2013-04-28 18:42:00,61.6,23.4,30.17,NNE,22,4.0,7.0,23,0.00,,,0.00,60,Wunderground v.1.15,2013-04-28 22:42:00,
2013-04-28 18:48:00,61.5,24.3,30.16,NNE,24,3.0,7.0,24,0.00,,,0.00,49,Wunderground v.1.15,2013-04-28 22:48:00,
2013-04-28 18:54:00,61.2,24.1,30.16,NNE,24,3.0,7.0,24,0.00,,,0.00,40,Wunderground v.1.15,2013-04-28 22:54:00,
2013-04-28 19:00:00,61.0,23.9,30.16,NNE,22,4.0,7.0,24,0.00,,,0.00,35,Wunderground v.1.15,2013-04-28 23:00:00,
2013-04-28 19:06:00,60.7,24.6,30.16,NNE,25,4.0,4.0,25,0.00,,,0.00,28,Wunderground v.1.15,2013-04-28 23:06:00,
2013-04-28 19:12:00,60.4,23.4,30.16,North,360,3.0,3.0,24,0.00,,,0.00,23,Wunderground v.1.15,2013-04-28 23:12:00,
2013-04-28 19:17:00,60.2,24.2,30.16,NNE,18,3.0,5.0,25,0.00,,,0.00,18,Wunderground v.1.15,2013-04-28 23:17:00,
2013-04-28 19:23:00,60.1,23.1,30.16,NNE,26,4.0,4.0,24,0.00,,,0.00,12,Wunderground v.1.15,2013-04-28 23:23:00,
2013-04-28 19:29:00,59.9,23.0,30.16,NNE,28,3.0,4.0,24,0.00,,,0.00,9,Wunderground v.1.15,2013-04-28 23:29:00,
2013-04-28 19:36:00,59.6,22.7,30.17,North,360,3.0,3.0,24,0.00,,,0.00,5,Wunderground v.1.15,2013-04-28 23:36:00,
2013-04-28 19:43:00,59.5,22.6,30.17,NNE,22,2.0,2.0,24,0.00,,,0.00,0,Wunderground v.1.15,2013-04-28 23:43:00,
2013-04-28 19:49:00,59.3,22.5,30.18,NNE,21,3.0,5.0,24,0.00,,,0.00,0,Wunderground v.1.15,2013-04-28 23:49:00,
2013-04-28 19:56:00,59.0,22.2,30.18,NNE,25,2.0,3.0,24,0.00,,,0.00,0,Wunderground v.1.15,2013-04-28 23:56:00,
2013-04-28 20:01:00,59.0,23.2,30.18,NNE,27,2.0,2.0,25,0.00,,,0.00,0,Wunderground v.1.15,2013-04-29 00:01:00,
2013-04-28 20:07:00,58.9,23.1,30.18,NNE,28,1.0,4.0,25,0.00,,,0.00,0,Wunderground v.1.15,2013-04-29 00:07:00,
2013-04-28 20:13:00,58.7,22.9,30.18,NNE,24,2.0,2.0,25,0.00,,,0.00,0,Wunderground v.1.15,2013-04-29 00:13:00,
2013-04-28 20:19:00,58.6,22.8,30.18,NNE,18,2.0,5.0,25,0.00,,,0.00,0,Wunderground v.1.15,2013-04-29 00:19:00,
2013-04-28 20:27:00,58.6,22.8,30.18,North,360,2.0,3.0,25,0.00,,,0.00,0,Wunderground v.1.15,2013-04-29 00:27:00,
2013-04-28 20:33:00,58.4,23.6,30.17,NNE,21,2.0,2.0,26,0.00,,,0.00,0,Wunderground v.1.15,2013-04-29 00:33:00,
2013-04-28 20:39:00,58.4,23.6,30.17,North,360,2.0,2.0,26,0.00,,,0.00,0,Wunderground v.1.15,2013-04-29 00:39:00,
2013-04-28 20:46:00,58.3,23.5,30.18,NNE,21,1.0,2.0,26,0.00,,,0.00,0,Wunderground v.1.15,2013-04-29 00:46:00,
2013-04-28 20:53:00,58.1,24.3,30.18,NNE,22,2.0,2.0,27,0.00,,,0.00,0,Wunderground v.1.15,2013-04-29 00:53:00,
2013-04-28 20:58:00,58.1,24.3,30.18,NNE,23,1.0,2.0,27,0.00,,,0.00,0,Wunderground v.1.15,2013-04-29 00:58:00,
2013-04-28 21:04:00,58.0,24.2,30.18,NNE,25,1.0,1.0,27,0.00,,,0.00,0,Wunderground v.1.15,2013-04-29 01:04:00,
2013-04-28 21:10:00,58.0,24.2,30.18,NNE,25,0.0,2.0,27,0.00,,,0.00,0,Wunderground v.1.15,2013-04-29 01:10:00,
2013-04-28 21:18:00,57.8,24.0,30.19,NNE,24,0.0,0.0,27,0.00,,,0.00,0,Wunderground v.1.15,2013-04-29 01:18:00,
2013-04-28 21:24:00,57.8,24.9,30.19,NNE,24,0.0,0.0,28,0.00,,,0.00,0,Wunderground v.1.15,2013-04-29 01:24:00,
2013-04-28 21:30:00,57.6,23.8,30.19,NNE,23,1.0,1.0,27,0.00,,,0.00,0,Wunderground v.1.15,2013-04-29 01:30:00,
2013-04-28 21:36:00,57.6,24.7,30.19,North,360,0.0,0.0,28,0.00,,,0.00,0,Wunderground v.1.15,2013-04-29 01:36:00,
2013-04-28 21:42:00,57.5,24.6,30.19,NNE,23,0.0,1.0,28,0.00,,,0.00,0,Wunderground v.1.15,2013-04-29 01:42:00,
2013-04-28 21:48:00,57.5,24.6,30.19,North,360,0.0,1.0,28,0.00,,,0.00,0,Wunderground v.1.15,2013-04-29 01:48:00,
2013-04-28 21:54:00,57.3,25.3,30.19,NNE,23,0.0,0.0,29,0.00,,,0.00,0,Wunderground v.1.15,2013-04-29 01:54:00,
2013-04-28 21:59:00,57.3,25.3,30.19,NNE,23,1.0,1.0,29,0.00,,,0.00,0,Wunderground v.1.15,2013-04-29 01:59:00,
2013-04-28 22:07:00,57.2,25.2,30.19,NNE,28,1.0,2.0,29,0.00,,,0.00,0,Wunderground v.1.15,2013-04-29 02:07:00,
2013-04-28 22:14:00,57.2,25.2,30.19,North,360,1.0,1.0,29,0.00,,,0.00,0,Wunderground v.1.15,2013-04-29 02:14:00,
2013-04-28 22:20:00,57.2,25.2,30.20,North,360,0.0,1.0,29,0.00,,,0.00,0,Wunderground v.1.15,2013-04-29 02:20:00,
2013-04-28 22:27:00,57.0,25.8,30.20,North,360,1.0,1.0,30,0.00,,,0.00,0,Wunderground v.1.15,2013-04-29 02:27:00,
2013-04-28 22:33:00,57.0,26.6,30.20,NNE,28,1.0,1.0,31,0.00,,,0.00,0,Wunderground v.1.15,2013-04-29 02:33:00,
2013-04-28 22:39:00,57.0,26.6,30.20,North,360,1.0,1.0,31,0.00,,,0.00,0,Wunderground v.1.15,2013-04-29 02:39:00,
2013-04-28 22:47:00,56.9,27.3,30.20,NNE,28,0.0,3.0,32,0.00,,,0.00,0,Wunderground v.1.15,2013-04-29 02:47:00,
2013-04-28 22:53:00,56.7,27.1,30.20,NNE,24,1.0,1.0,32,0.00,,,0.00,0,Wunderground v.1.15,2013-04-29 02:53:00,
2013-04-28 22:59:00,56.7,27.1,30.20,North,360,0.0,1.0,32,0.00,,,0.00,0,Wunderground v.1.15,2013-04-29 02:59:00,
2013-04-28 23:06:00,56.7,27.9,30.20,NNE,22,1.0,2.0,33,0.00,,,0.00,0,Wunderground v.1.15,2013-04-29 03:06:00,
2013-04-28 23:13:00,56.6,27.8,30.20,NNE,23,1.0,3.0,33,0.00,,,0.00,0,Wunderground v.1.15,2013-04-29 03:13:00,
2013-04-28 23:19:00,56.6,27.8,30.20,NNE,23,1.0,3.0,33,0.00,,,0.00,0,Wunderground v.1.15,2013-04-29 03:19:00,
2013-04-28 23:27:00,56.5,29.1,30.20,NNE,23,0.0,1.0,35,0.00,,,0.00,0,Wunderground v.1.15,2013-04-29 03:27:00,
2013-04-28 23:33:00,56.3,29.7,30.20,NNE,27,0.0,0.0,36,0.00,,,0.00,0,Wunderground v.1.15,2013-04-29 03:33:00,
2013-04-28 23:39:00,56.3,30.3,30.20,NNE,27,1.0,1.0,37,0.00,,,0.00,0,Wunderground v.1.15,2013-04-29 03:39:00,
2013-04-28 23:47:00,56.3,32.3,30.21,NNE,27,1.0,2.0,40,0.00,,,0.00,0,Wunderground v.1.15,2013-04-29 03:47:00,
2013-04-28 23:53:00,56.3,32.9,30.21,North,360,0.0,0.0,41,0.00,,,0.00,0,Wunderground v.1.15,2013-04-29 03:53:00,